To NAV CANADA Home Page Login to a new session Search on AWWS site Disclaimer Vers la page française équivalente Tips FAQ What's new on the site To the Forecasts and Observations / NOTAM section To "File a Flight Plan" website Publications and other links Update of the User's profile FIC Telephone Numbers My Weather Data Folder Route Weather Data Regional Weather Data Local Weather Data To the Forecasts and Observations / NOTAM section
Request Generated 11/16/2018 at 01:07:18 UTC . Weather information available at that time is displayed.

METAR/TAF

PAULATUK/PAULATUK (NORA ALIQATCHIALUK RUBEN)/NT    

LWIS CYPC 160100Z AUTO 22027KT M18/M21 A3029=
METAR CYPC 160000Z 22026KT 3SM BLSN BKN008 OVC020 M17/M21 A3029 RMK BLSN2SC3ST3 -17.0/-20.2/2/14 MUCH LOOSE/LAST STFD OBS/NXT161400U
TC SLP260=
METAR CYPC 152300Z 21028KT 3SM BLSN BKN008 OVC020 M18/M21 A3029 RMK BLSN3SC3ST2 SLP260=

*** REMARK        : Forecast period has ended; this was the last TAF issued
*** REMARQUE : La période de prévision est échue; ceci était le dernier TAF qui a été émis
TAF AMD CYPC 152231Z 1522/1524 20028G38KT 1/4SM +BLSN VV003 TEMPO
1522/1524 3SM BLSN OVC020
RMK NXT FCST WILL BE ISSUED AT 161545Z=
Your time UTC time
Weather data provided by Environment Canada and NAV CANADA